Felker Army Air Field Fort Eustis US
ICAO: KFAF
IATA: FAF
Category: Medium
Scheduled Services: No

Elevation: 12 ft
TransAlt. 18000 ft.

Airport Communications:
NORFOLK APP/DEP:125.7
CTAF:126.3
GND:121.35
BASE OPS:134.1
PMSV METRO:134.1
TWR:126.3

KFAF Zoom In..

If you have problems with the map follow the link
https://www.worldairports.se/pages/airport.php?
ICAO=KFAF

Runways:

(A) RW 14 length 3025 ft width 75 ft
---- / hdg 139

(B) RW 32 length 3025 ft width 75 ft
---- / hdg 319

Location; KFAF
Day. 25 / Time. 06.56 Zulu
* Altimeter: 29.88
* Temperature: 15° c. 59°f.
* Wind from: 150° Speed 11 kn.
Dewpoint: 11° c.
Visibility: 10 Statute Miles.
Clouds: Scattered 1000 ft.

KFAF 250656Z AUTO 15011KT 10SM SCT100 15/11 A2988 RMK AO2 SLP121 T01490113 $


Wind From 150°
Speed 11 kn.

 
 
jpsmedia worldairports.se 2020   terms of use